createdAt,value
2023-07-07T00:00:00.030Z,56.13
2023-07-07T00:02:28.104Z,55.96
2023-07-07T00:04:56.257Z,56.19
2023-07-07T00:07:23.917Z,56.19
2023-07-07T00:09:51.863Z,56.18
2023-07-07T00:12:19.919Z,56.34
2023-07-07T00:14:49.377Z,55.90
2023-07-07T00:17:17.319Z,56.12
2023-07-07T00:19:46.044Z,56.19
2023-07-07T00:22:14.861Z,56.10
2023-07-07T00:24:42.567Z,56.16
2023-07-07T00:27:10.449Z,55.72
2023-07-07T00:29:38.449Z,55.87
2023-07-07T00:32:07.017Z,55.95
2023-07-07T00:34:34.947Z,55.87
2023-07-07T00:37:02.672Z,55.82
2023-07-07T00:39:30.460Z,55.84
2023-07-07T00:42:00.104Z,56.11
2023-07-07T00:45:02.970Z,55.74
2023-07-07T00:47:33.788Z,56.02
2023-07-07T00:50:01.655Z,56.01
2023-07-07T00:52:30.603Z,55.54
2023-07-07T00:54:58.359Z,55.62
2023-07-07T00:57:26.679Z,55.67
2023-07-07T00:59:54.431Z,55.29
2023-07-07T01:02:26.943Z,55.46
2023-07-07T01:04:59.409Z,55.21
2023-07-07T01:07:42.832Z,55.26
2023-07-07T01:10:11.499Z,55.48
2023-07-07T01:12:39.266Z,55.40
2023-07-07T01:15:08.514Z,55.53
2023-07-07T01:17:56.637Z,55.12
2023-07-07T01:21:02.656Z,55.00
2023-07-07T01:23:40.000Z,55.27
2023-07-07T01:26:37.226Z,55.02
2023-07-07T01:29:27.117Z,54.75
2023-07-07T01:32:19.622Z,55.24
2023-07-07T01:34:49.034Z,55.20
2023-07-07T01:37:17.015Z,54.94
2023-07-07T01:39:45.783Z,55.01
2023-07-07T01:42:39.994Z,55.14
2023-07-07T01:45:25.765Z,55.11
2023-07-07T01:48:27.569Z,54.88
2023-07-07T01:50:56.494Z,55.04
2023-07-07T01:53:27.521Z,54.88
2023-07-07T01:55:59.010Z,55.25
2023-07-07T01:58:28.969Z,55.11
2023-07-07T02:00:58.013Z,55.30
2023-07-07T02:03:28.615Z,55.37
2023-07-07T02:05:56.416Z,55.06
2023-07-07T02:08:24.247Z,55.05
2023-07-07T02:10:51.985Z,55.32
2023-07-07T02:13:19.834Z,55.25
2023-07-07T02:15:47.769Z,55.47
2023-07-07T02:18:15.691Z,55.26
2023-07-07T02:20:43.474Z,55.56
2023-07-07T02:23:11.171Z,55.25
2023-07-07T02:25:38.848Z,55.12
2023-07-07T02:28:07.190Z,55.38
2023-07-07T02:30:36.942Z,55.13
2023-07-07T02:33:05.178Z,55.16
2023-07-07T02:35:33.705Z,54.88
2023-07-07T02:38:02.221Z,54.77
2023-07-07T02:40:31.013Z,54.90
2023-07-07T02:42:59.012Z,55.02
2023-07-07T02:45:26.839Z,54.76
2023-07-07T02:47:54.605Z,54.77
2023-07-07T02:50:22.376Z,54.69
2023-07-07T02:52:50.078Z,55.11
2023-07-07T02:55:17.900Z,55.15
2023-07-07T02:57:45.774Z,55.00
2023-07-07T03:00:14.458Z,55.02
2023-07-07T03:02:43.072Z,54.69
2023-07-07T03:05:11.334Z,54.71
2023-07-07T03:07:39.438Z,54.68
2023-07-07T03:10:08.579Z,55.38
2023-07-07T03:12:38.157Z,54.88
2023-07-07T03:15:08.937Z,54.93
2023-07-07T03:17:43.698Z,54.91
2023-07-07T03:20:12.593Z,54.52
2023-07-07T03:22:41.683Z,54.68
2023-07-07T03:25:10.561Z,54.39
2023-07-07T03:27:54.529Z,54.75
2023-07-07T03:30:29.582Z,54.67
2023-07-07T03:33:05.498Z,54.37
2023-07-07T03:35:33.902Z,54.64
2023-07-07T03:38:02.148Z,54.49
2023-07-07T03:40:31.933Z,54.56
2023-07-07T03:43:00.128Z,54.18
2023-07-07T03:45:30.171Z,53.77
2023-07-07T03:48:00.368Z,53.99
2023-07-07T03:50:28.046Z,53.81
2023-07-07T03:52:57.294Z,53.42
2023-07-07T03:55:27.539Z,53.80
2023-07-07T03:57:55.333Z,53.57
2023-07-07T04:00:23.396Z,53.60
2023-07-07T04:02:51.897Z,53.65
2023-07-07T04:05:20.440Z,53.59
2023-07-07T04:07:48.488Z,53.60
2023-07-07T04:10:17.967Z,53.61
2023-07-07T04:12:46.316Z,54.00
2023-07-07T04:15:14.429Z,54.02
2023-07-07T04:17:42.292Z,53.98
2023-07-07T04:20:10.814Z,53.95
2023-07-07T04:22:38.625Z,54.10
2023-07-07T04:25:11.813Z,54.59
2023-07-07T04:27:40.196Z,54.44
2023-07-07T04:30:09.567Z,54.50
2023-07-07T04:32:38.502Z,54.70
2023-07-07T04:35:06.598Z,54.97
2023-07-07T04:37:34.374Z,54.84
2023-07-07T04:40:02.252Z,55.08
2023-07-07T04:42:30.151Z,55.43
2023-07-07T04:44:58.037Z,51.16
2023-07-07T04:47:25.991Z,52.32
2023-07-07T04:49:53.675Z,53.08
2023-07-07T04:52:21.591Z,53.60
2023-07-07T04:54:50.774Z,53.86
2023-07-07T04:57:18.432Z,54.05
2023-07-07T04:59:46.188Z,54.55
2023-07-07T05:02:15.353Z,54.39
2023-07-07T05:04:43.286Z,54.53
2023-07-07T05:07:11.165Z,54.49
2023-07-07T05:09:38.872Z,54.91
2023-07-07T05:12:10.547Z,55.20
2023-07-07T05:14:38.291Z,55.08
2023-07-07T05:17:06.345Z,55.05
2023-07-07T05:19:34.303Z,55.38
2023-07-07T05:22:02.033Z,55.41
2023-07-07T05:24:29.859Z,55.26
2023-07-07T05:26:58.252Z,55.85
2023-07-07T05:29:26.446Z,55.54
2023-07-07T05:31:54.577Z,55.55
2023-07-07T05:34:22.642Z,55.94
2023-07-07T05:36:50.714Z,55.65
2023-07-07T05:39:18.584Z,55.80
2023-07-07T05:41:46.334Z,55.60
2023-07-07T05:44:15.638Z,55.67
2023-07-07T05:46:44.880Z,55.57
2023-07-07T05:49:12.793Z,55.48
2023-07-07T05:51:43.477Z,55.43
2023-07-07T05:54:11.334Z,55.58
2023-07-07T05:56:39.074Z,55.79
2023-07-07T05:59:07.541Z,55.38
2023-07-07T06:01:37.030Z,56.04
2023-07-07T06:04:05.233Z,55.96
2023-07-07T06:06:33.210Z,55.76
2023-07-07T06:09:01.029Z,55.84
2023-07-07T06:11:29.252Z,55.85
2023-07-07T06:13:57.023Z,56.39
2023-07-07T06:16:24.990Z,56.09
2023-07-07T06:18:52.833Z,56.10
2023-07-07T06:21:20.700Z,56.79
2023-07-07T06:23:50.412Z,56.45
2023-07-07T06:26:20.271Z,56.66
2023-07-07T06:28:48.017Z,56.67
2023-07-07T06:31:15.985Z,56.78
2023-07-07T06:33:43.884Z,56.80
2023-07-07T06:36:11.864Z,56.91
2023-07-07T06:38:41.996Z,56.99
2023-07-07T06:41:12.911Z,56.88
2023-07-07T06:43:40.782Z,57.17
2023-07-07T06:46:10.067Z,57.22
2023-07-07T06:48:38.114Z,57.19
2023-07-07T06:51:06.079Z,57.23
2023-07-07T06:53:34.890Z,57.45
2023-07-07T06:56:02.863Z,57.58
2023-07-07T06:58:31.767Z,57.86
2023-07-07T07:00:59.659Z,57.58
2023-07-07T07:03:28.876Z,57.57
2023-07-07T07:05:56.797Z,57.76
2023-07-07T07:08:24.556Z,57.57
2023-07-07T07:10:52.538Z,57.81
2023-07-07T07:13:21.653Z,57.52
2023-07-07T07:15:49.667Z,57.73
2023-07-07T07:18:19.317Z,57.78
2023-07-07T07:20:51.710Z,57.50
2023-07-07T07:23:22.527Z,57.46
2023-07-07T07:25:51.595Z,57.24
2023-07-07T07:28:19.332Z,57.20
2023-07-07T07:30:47.506Z,57.35
2023-07-07T07:33:20.339Z,57.73
2023-07-07T07:35:48.861Z,57.18
2023-07-07T07:38:18.504Z,57.35
2023-07-07T07:40:46.416Z,56.99
2023-07-07T07:43:14.280Z,56.94
2023-07-07T07:45:42.182Z,56.63
2023-07-07T07:48:10.286Z,56.04
2023-07-07T07:50:38.543Z,56.55
2023-07-07T07:53:06.749Z,56.37
2023-07-07T07:55:34.566Z,55.74
2023-07-07T07:58:02.556Z,55.42
2023-07-07T08:00:30.504Z,55.02
2023-07-07T08:02:58.452Z,54.40
2023-07-07T08:05:27.228Z,54.13
2023-07-07T08:07:55.278Z,53.90
2023-07-07T08:10:23.107Z,53.57
2023-07-07T08:12:51.400Z,53.01
2023-07-07T08:15:19.280Z,53.08
2023-07-07T08:17:47.034Z,53.43
2023-07-07T08:20:23.048Z,52.50
2023-07-07T08:22:50.985Z,52.66
2023-07-07T08:25:19.050Z,52.46
2023-07-07T08:30:18.079Z,52.05
2023-07-07T08:32:45.963Z,52.21
2023-07-07T08:35:14.478Z,51.67
2023-07-07T08:37:42.406Z,50.38
2023-07-07T08:40:18.579Z,50.91
2023-07-07T08:42:47.224Z,50.13
2023-07-07T08:45:21.256Z,50.85
2023-07-07T08:47:57.945Z,50.40
2023-07-07T08:50:39.499Z,49.53
2023-07-07T08:53:45.031Z,50.05
2023-07-07T08:56:24.601Z,50.39
2023-07-07T08:58:58.536Z,49.73
2023-07-07T09:01:52.253Z,49.69
2023-07-07T09:04:39.160Z,49.78
2023-07-07T09:07:36.890Z,49.65
2023-07-07T09:10:23.395Z,49.24
2023-07-07T09:12:58.922Z,49.46
2023-07-07T09:15:32.423Z,49.95
2023-07-07T09:18:09.368Z,53.16
2023-07-07T09:20:37.777Z,50.52
2023-07-07T09:23:13.480Z,50.34
2023-07-07T09:25:52.955Z,49.85
2023-07-07T09:28:21.012Z,49.45
2023-07-07T09:30:53.316Z,49.63
2023-07-07T09:33:24.617Z,49.70
2023-07-07T09:36:08.509Z,49.33
2023-07-07T09:38:55.365Z,48.98
2023-07-07T09:41:26.655Z,48.44
2023-07-07T09:44:22.515Z,47.98
2023-07-07T09:47:13.551Z,48.10
2023-07-07T09:50:14.329Z,48.41
2023-07-07T09:52:58.099Z,47.69
2023-07-07T09:55:33.776Z,47.12
2023-07-07T09:58:04.532Z,47.72
2023-07-07T10:00:44.948Z,47.34
2023-07-07T10:03:33.389Z,46.50
2023-07-07T10:06:04.501Z,46.29
2023-07-07T10:08:32.903Z,46.33
2023-07-07T10:13:54.382Z,46.72
2023-07-07T10:16:37.724Z,46.58
2023-07-07T10:19:12.782Z,47.30
2023-07-07T10:21:40.690Z,47.87
2023-07-07T10:24:12.299Z,46.89
2023-07-07T10:26:48.528Z,46.74
2023-07-07T10:29:20.102Z,46.14
2023-07-07T10:31:48.109Z,46.52
2023-07-07T10:34:25.220Z,45.92
2023-07-07T10:36:58.112Z,46.12
2023-07-07T10:39:28.377Z,45.69
2023-07-07T10:41:56.287Z,45.70
2023-07-07T10:44:28.611Z,45.65
2023-07-07T10:46:59.489Z,45.63
2023-07-07T10:49:28.363Z,45.92
2023-07-07T10:52:18.535Z,44.96
2023-07-07T10:54:59.697Z,44.75
2023-07-07T10:57:53.318Z,45.17
2023-07-07T11:00:31.037Z,44.86
2023-07-07T11:03:22.037Z,44.60
2023-07-07T11:06:26.278Z,44.45
2023-07-07T11:09:13.069Z,44.77
2023-07-07T11:12:01.781Z,44.54
2023-07-07T11:14:51.228Z,44.87
2023-07-07T11:17:58.546Z,44.31
2023-07-07T11:20:29.496Z,44.64
2023-07-07T11:23:21.341Z,44.49
2023-07-07T11:25:59.047Z,44.43
2023-07-07T11:28:54.592Z,43.65
2023-07-07T11:31:40.085Z,43.79
2023-07-07T11:34:34.543Z,44.17
2023-07-07T11:37:23.479Z,43.92
2023-07-07T11:40:06.135Z,44.30
2023-07-07T11:43:01.372Z,44.62
2023-07-07T11:45:56.900Z,44.46
2023-07-07T11:48:41.398Z,44.28
2023-07-07T11:51:20.962Z,44.74
2023-07-07T11:54:00.764Z,44.78
2023-07-07T11:57:12.884Z,44.19
2023-07-07T11:59:52.977Z,44.39
2023-07-07T12:02:27.926Z,44.15
2023-07-07T12:04:58.833Z,44.40
2023-07-07T12:07:49.364Z,43.98
2023-07-07T12:10:24.204Z,44.53
2023-07-07T12:13:07.301Z,44.40
2023-07-07T12:15:41.428Z,44.61
2023-07-07T12:18:34.157Z,44.24
2023-07-07T12:21:14.631Z,44.52
2023-07-07T12:24:08.270Z,45.21
2023-07-07T12:26:43.561Z,45.58
2023-07-07T12:29:18.142Z,45.21
2023-07-07T12:31:48.457Z,45.44
2023-07-07T12:34:47.986Z,45.55
2023-07-07T12:37:23.056Z,45.63
2023-07-07T12:40:10.569Z,45.75
2023-07-07T12:42:43.534Z,46.30
2023-07-07T12:45:34.471Z,46.29
2023-07-07T12:48:08.124Z,45.91
2023-07-07T12:50:40.515Z,46.00
2023-07-07T12:53:18.811Z,46.20
2023-07-07T12:56:08.802Z,46.54
2023-07-07T12:58:51.632Z,46.75
2023-07-07T13:01:19.687Z,47.04
2023-07-07T13:04:06.866Z,46.90
2023-07-07T13:06:38.419Z,46.99
2023-07-07T13:09:19.635Z,46.92
2023-07-07T13:11:56.526Z,46.67
2023-07-07T13:14:44.880Z,47.42
2023-07-07T13:17:28.816Z,47.02
2023-07-07T13:20:03.310Z,47.33
2023-07-07T13:22:39.285Z,48.02
2023-07-07T13:25:37.725Z,48.20
2023-07-07T13:28:13.325Z,48.39
2023-07-07T13:30:56.122Z,48.23
2023-07-07T13:33:28.535Z,48.79
2023-07-07T13:36:01.573Z,48.47
2023-07-07T13:38:36.041Z,48.72
2023-07-07T13:41:10.220Z,48.89
2023-07-07T13:43:45.727Z,48.72
2023-07-07T13:46:20.813Z,49.21
2023-07-07T13:49:37.055Z,49.37
2023-07-07T13:52:22.667Z,48.85
2023-07-07T13:54:51.501Z,49.16
2023-07-07T13:57:29.387Z,49.73
2023-07-07T13:59:58.195Z,49.66
2023-07-07T14:02:26.803Z,48.98
2023-07-07T14:05:07.651Z,48.61
2023-07-07T14:07:39.838Z,48.54
2023-07-07T14:10:31.584Z,48.00
2023-07-07T14:13:00.266Z,48.35
2023-07-07T14:15:36.804Z,48.04
2023-07-07T14:18:08.142Z,48.06
2023-07-07T14:20:46.718Z,48.17
2023-07-07T14:23:17.316Z,48.30
2023-07-07T14:25:48.488Z,48.54
2023-07-07T14:28:19.577Z,48.65
2023-07-07T14:30:55.446Z,48.82
2023-07-07T14:33:28.011Z,49.00
2023-07-07T14:35:58.011Z,48.94
2023-07-07T14:38:36.390Z,48.71
2023-07-07T14:41:17.857Z,48.54
2023-07-07T14:43:45.806Z,48.63
2023-07-07T14:46:21.508Z,47.87
2023-07-07T14:48:57.550Z,47.75
2023-07-07T14:51:33.845Z,47.71
2023-07-07T14:54:03.989Z,47.71
2023-07-07T14:56:47.747Z,47.07
2023-07-07T14:59:22.132Z,47.12
2023-07-07T15:01:58.350Z,46.89
2023-07-07T15:04:34.585Z,47.23
2023-07-07T15:07:04.494Z,46.77
2023-07-07T15:09:32.287Z,47.01
2023-07-07T15:12:00.950Z,47.25
2023-07-07T15:14:28.597Z,47.57
2023-07-07T15:16:56.578Z,47.48
2023-07-07T15:19:24.509Z,47.21
2023-07-07T15:21:52.392Z,46.52
2023-07-07T15:24:20.411Z,46.04
2023-07-07T15:26:49.279Z,46.12
2023-07-07T15:29:23.393Z,45.71
2023-07-07T15:31:51.149Z,46.19
2023-07-07T15:34:20.915Z,46.12
2023-07-07T15:36:48.654Z,46.08
2023-07-07T15:39:16.508Z,45.86
2023-07-07T15:41:44.538Z,46.29
2023-07-07T15:44:12.790Z,45.57
2023-07-07T15:46:48.305Z,45.86
2023-07-07T15:49:19.736Z,45.85
2023-07-07T15:51:47.997Z,46.08
2023-07-07T15:54:16.131Z,46.45
2023-07-07T15:56:46.507Z,46.81
2023-07-07T15:59:23.193Z,46.60
2023-07-07T16:01:56.331Z,47.13
2023-07-07T16:04:24.551Z,47.46
2023-07-07T16:06:56.520Z,47.63
2023-07-07T16:09:29.050Z,47.88
2023-07-07T16:11:58.935Z,48.40
2023-07-07T16:14:29.906Z,48.87
2023-07-07T16:16:59.249Z,49.29
2023-07-07T16:19:28.998Z,49.57
2023-07-07T16:22:06.288Z,49.54
2023-07-07T16:24:44.771Z,49.84
2023-07-07T16:27:20.772Z,50.77
2023-07-07T16:29:53.235Z,50.90
2023-07-07T16:32:24.031Z,51.32
2023-07-07T16:34:52.404Z,51.49
2023-07-07T16:37:27.418Z,51.28
2023-07-07T16:39:55.548Z,51.10
2023-07-07T16:42:26.200Z,51.92
2023-07-07T16:44:56.133Z,52.39
2023-07-07T16:47:24.130Z,52.93
2023-07-07T16:49:52.132Z,52.58
2023-07-07T16:52:22.185Z,52.77
2023-07-07T16:54:50.160Z,52.11
2023-07-07T16:57:19.886Z,52.59
2023-07-07T16:59:47.971Z,52.60
2023-07-07T17:02:15.604Z,52.50
2023-07-07T17:04:43.468Z,53.01
2023-07-07T17:07:11.611Z,53.02
2023-07-07T17:09:39.557Z,53.02
2023-07-07T17:12:12.571Z,53.13
2023-07-07T17:14:40.564Z,53.20
2023-07-07T17:17:12.893Z,53.01
2023-07-07T17:19:40.838Z,53.00
2023-07-07T17:22:08.646Z,53.26
2023-07-07T17:24:37.213Z,52.41
2023-07-07T17:27:05.635Z,52.48
2023-07-07T17:29:34.243Z,52.30
2023-07-07T17:32:02.171Z,52.33
2023-07-07T17:34:30.019Z,52.42
2023-07-07T17:36:57.784Z,51.96
2023-07-07T17:39:26.123Z,52.31
2023-07-07T17:41:53.866Z,52.34
2023-07-07T17:44:21.823Z,53.17
2023-07-07T17:46:49.866Z,53.55
2023-07-07T17:49:21.964Z,53.84
2023-07-07T17:51:50.540Z,54.04
2023-07-07T17:54:18.430Z,54.15
2023-07-07T17:56:46.174Z,56.36
2023-07-07T17:59:20.440Z,56.52
2023-07-07T18:01:49.796Z,55.21
2023-07-07T18:04:17.886Z,54.85
2023-07-07T18:06:51.863Z,54.87
2023-07-07T18:09:21.101Z,54.60
2023-07-07T18:11:51.294Z,54.96
2023-07-07T18:14:21.074Z,55.05
2023-07-07T18:17:00.355Z,55.29
2023-07-07T18:19:57.988Z,55.54
2023-07-07T18:22:27.207Z,56.10
2023-07-07T18:24:55.441Z,55.98
2023-07-07T18:27:23.275Z,56.04
2023-07-07T18:29:51.725Z,55.83
2023-07-07T18:32:19.721Z,56.38
2023-07-07T18:34:47.523Z,56.62
2023-07-07T18:37:16.875Z,56.27
2023-07-07T18:39:48.302Z,56.52
2023-07-07T18:42:16.038Z,56.37
2023-07-07T18:44:43.850Z,57.07
2023-07-07T18:47:16.111Z,57.18
2023-07-07T18:49:46.857Z,57.31
2023-07-07T18:52:15.549Z,57.63
2023-07-07T18:54:43.461Z,57.96
2023-07-07T18:57:11.594Z,58.37
2023-07-07T18:59:39.629Z,58.62
2023-07-07T19:02:15.987Z,58.57
2023-07-07T19:04:44.481Z,58.22
2023-07-07T19:07:14.100Z,58.43
2023-07-07T19:09:43.267Z,58.46
2023-07-07T19:12:14.296Z,58.79
2023-07-07T19:14:42.139Z,58.93
2023-07-07T19:17:13.402Z,58.82
2023-07-07T19:19:41.185Z,58.89
2023-07-07T19:22:13.789Z,59.37
2023-07-07T19:24:41.544Z,58.95
2023-07-07T19:27:12.232Z,59.10
2023-07-07T19:29:40.159Z,59.34
2023-07-07T19:32:19.281Z,52.33
2023-07-07T19:34:47.229Z,51.34
2023-07-07T19:37:15.115Z,51.82
2023-07-07T19:39:44.015Z,52.35
2023-07-07T19:42:13.215Z,52.94
2023-07-07T19:44:42.552Z,53.20
2023-07-07T19:47:14.847Z,53.82
2023-07-07T19:49:42.977Z,54.24
2023-07-07T19:52:16.744Z,54.97
2023-07-07T19:54:45.323Z,54.21
2023-07-07T19:57:24.095Z,54.63
2023-07-07T19:59:51.968Z,55.29
2023-07-07T20:02:21.672Z,56.27
2023-07-07T20:04:49.957Z,56.49
2023-07-07T20:07:17.796Z,55.77
2023-07-07T20:09:45.682Z,56.52
2023-07-07T20:12:16.145Z,57.07
2023-07-07T20:14:43.944Z,57.42
2023-07-07T20:17:13.698Z,57.21
2023-07-07T20:19:45.512Z,57.48
2023-07-07T20:22:14.483Z,57.65
2023-07-07T20:24:42.977Z,58.06
2023-07-07T20:27:12.805Z,58.72
2023-07-07T20:29:41.024Z,58.47
2023-07-07T20:32:15.177Z,58.71
2023-07-07T20:34:43.047Z,58.19
2023-07-07T20:37:15.552Z,58.48
2023-07-07T20:39:44.708Z,58.86
2023-07-07T20:42:14.454Z,58.30
2023-07-07T20:44:43.621Z,58.56
2023-07-07T20:47:13.522Z,58.43
2023-07-07T20:49:42.166Z,58.58
2023-07-07T20:52:14.120Z,58.19
2023-07-07T20:54:41.904Z,57.99
2023-07-07T20:57:19.092Z,58.13
2023-07-07T20:59:48.344Z,57.27
2023-07-07T21:02:17.216Z,56.99
2023-07-07T21:04:45.192Z,56.86
2023-07-07T21:07:14.229Z,56.85
2023-07-07T21:09:42.735Z,57.09
2023-07-07T21:12:11.148Z,57.04
2023-07-07T21:14:39.064Z,57.42
2023-07-07T21:17:06.971Z,57.32
2023-07-07T21:19:34.937Z,57.39
2023-07-07T21:22:02.827Z,57.27
2023-07-07T21:24:30.659Z,57.17
2023-07-07T21:26:58.488Z,57.69
2023-07-07T21:29:26.280Z,57.54
2023-07-07T21:31:54.124Z,57.41
2023-07-07T21:34:21.990Z,57.60
2023-07-07T21:36:49.752Z,57.57
2023-07-07T21:39:29.614Z,57.28
2023-07-07T21:44:31.100Z,57.31
2023-07-07T21:46:59.205Z,57.50
2023-07-07T21:49:27.998Z,57.89
2023-07-07T21:51:56.438Z,57.71
2023-07-07T21:54:24.304Z,57.92
2023-07-07T21:56:52.534Z,57.49
2023-07-07T21:59:22.813Z,57.39
2023-07-07T22:01:54.252Z,57.45
2023-07-07T22:04:27.839Z,57.76
2023-07-07T22:06:55.694Z,57.89
2023-07-07T22:09:25.875Z,57.81
2023-07-07T22:11:54.095Z,57.76
2023-07-07T22:14:22.379Z,57.74
2023-07-07T22:16:50.222Z,57.62
2023-07-07T22:19:20.185Z,57.59
2023-07-07T22:21:48.151Z,57.22
2023-07-07T22:24:16.197Z,57.64
2023-07-07T22:26:43.962Z,57.30
2023-07-07T22:29:13.789Z,57.36
2023-07-07T22:31:42.008Z,57.41
2023-07-07T22:34:09.904Z,57.26
2023-07-07T22:36:41.037Z,57.48
2023-07-07T22:39:12.862Z,57.17
2023-07-07T22:41:40.623Z,56.86
2023-07-07T22:44:09.243Z,56.56
2023-07-07T22:46:42.304Z,56.13
2023-07-07T22:49:14.530Z,56.39
2023-07-07T22:51:44.427Z,55.71
2023-07-07T22:54:12.309Z,55.20
2023-07-07T22:56:41.168Z,55.30
2023-07-07T22:59:21.337Z,54.18
2023-07-07T23:01:49.528Z,54.28
2023-07-07T23:04:17.800Z,53.56
2023-07-07T23:06:47.482Z,53.55
2023-07-07T23:09:47.788Z,52.50
2023-07-07T23:12:21.636Z,52.73
2023-07-07T23:14:50.819Z,52.57
2023-07-07T23:17:25.051Z,52.43
2023-07-07T23:19:57.137Z,52.08
2023-07-07T23:22:32.044Z,51.89
2023-07-07T23:25:01.595Z,51.78
2023-07-07T23:27:35.068Z,51.64
2023-07-07T23:30:17.517Z,51.36
2023-07-07T23:32:47.111Z,51.86
2023-07-07T23:35:15.961Z,51.22
2023-07-07T23:37:44.746Z,51.04
2023-07-07T23:40:34.323Z,50.67
2023-07-07T23:43:02.394Z,51.48
2023-07-07T23:45:30.697Z,51.09
2023-07-07T23:48:01.482Z,51.27
2023-07-07T23:50:34.523Z,51.10
2023-07-07T23:53:02.396Z,51.14
2023-07-07T23:55:32.342Z,50.78
2023-07-07T23:58:00.821Z,50.91
